TimeCDT,TemperatureF,Dew PointF,Humidity,Sea Level PressureIn,VisibilityMPH,Wind Direction,Wind SpeedMPH,Gust SpeedMPH,PrecipitationIn,Events,Conditions,WindDirDegrees,DateUTC
12:16 AM,41.0,37.4,87,29.64,10.0,WSW,5.8,-,N/A,,Clear,240,2012-10-09 05:16:00
12:36 AM,41.0,37.4,87,29.63,10.0,WSW,3.5,-,N/A,,Clear,240,2012-10-09 05:36:00
12:56 AM,39.2,37.4,93,29.63,10.0,SW,4.6,-,N/A,,Clear,220,2012-10-09 05:56:00
1:16 AM,39.2,37.4,93,29.63,10.0,SW,4.6,-,N/A,,Clear,230,2012-10-09 06:16:00
1:36 AM,39.2,37.4,93,29.64,10.0,WSW,5.8,-,N/A,,Clear,240,2012-10-09 06:36:00
1:56 AM,39.2,37.4,93,29.64,10.0,WSW,4.6,-,N/A,,Clear,240,2012-10-09 06:56:00
2:16 AM,39.2,37.4,93,29.65,10.0,SW,5.8,-,N/A,,Scattered Clouds,230,2012-10-09 07:16:00
2:36 AM,39.2,37.4,93,29.65,10.0,WSW,6.9,-,N/A,,Scattered Clouds,240,2012-10-09 07:36:00
3:16 AM,39.2,37.4,93,29.64,10.0,WSW,6.9,-,N/A,,Clear,240,2012-10-09 08:16:00
3:36 AM,39.2,35.6,87,29.64,10.0,WSW,5.8,-,N/A,,Scattered Clouds,240,2012-10-09 08:36:00
3:56 AM,39.2,35.6,87,29.64,10.0,WSW,6.9,-,N/A,,Mostly Cloudy,240,2012-10-09 08:56:00
4:16 AM,39.2,35.6,87,29.64,10.0,SW,4.6,-,N/A,,Overcast,230,2012-10-09 09:16:00
4:36 AM,39.2,35.6,87,29.64,10.0,WSW,6.9,-,N/A,,Overcast,240,2012-10-09 09:36:00
4:56 AM,39.2,33.8,81,29.64,10.0,WSW,6.9,-,N/A,,Overcast,240,2012-10-09 09:56:00
5:16 AM,39.2,33.8,81,29.64,10.0,WSW,5.8,-,N/A,,Scattered Clouds,250,2012-10-09 10:16:00
5:36 AM,37.4,33.8,87,29.64,10.0,WSW,6.9,-,N/A,,Clear,240,2012-10-09 10:36:00
6:16 AM,37.4,33.8,87,29.64,10.0,WSW,5.8,-,N/A,,Clear,240,2012-10-09 11:16:00
6:36 AM,37.4,32.0,81,29.64,10.0,SW,6.9,-,N/A,,Clear,230,2012-10-09 11:36:00
6:56 AM,37.4,32.0,81,29.66,10.0,WSW,10.4,-,N/A,,Clear,240,2012-10-09 11:56:00
7:16 AM,35.6,30.2,81,29.66,10.0,WSW,8.1,-,N/A,,Clear,240,2012-10-09 12:16:00
7:36 AM,35.6,30.2,81,29.66,10.0,SW,8.1,-,N/A,,Clear,230,2012-10-09 12:36:00
7:56 AM,35.6,30.2,81,29.66,10.0,SW,4.6,-,N/A,,Scattered Clouds,230,2012-10-09 12:56:00
8:16 AM,35.6,30.2,81,29.66,10.0,WSW,5.8,-,N/A,,Scattered Clouds,240,2012-10-09 13:16:00
8:36 AM,37.4,30.2,75,29.66,10.0,WSW,6.9,-,N/A,,Scattered Clouds,250,2012-10-09 13:36:00
8:56 AM,37.4,30.2,75,29.67,10.0,West,5.8,-,N/A,,Mostly Cloudy,260,2012-10-09 13:56:00
9:16 AM,39.2,32.0,75,29.67,10.0,WSW,5.8,-,N/A,,Scattered Clouds,250,2012-10-09 14:16:00
9:36 AM,37.4,30.2,75,29.68,10.0,WSW,5.8,16.1,N/A,,Mostly Cloudy,250,2012-10-09 14:36:00
9:56 AM,37.4,30.2,75,29.68,10.0,WSW,9.2,-,N/A,,Overcast,250,2012-10-09 14:56:00
10:16 AM,37.4,30.2,75,29.68,10.0,West,10.4,-,N/A,,Mostly Cloudy,260,2012-10-09 15:16:00
10:36 AM,39.2,32.0,75,29.69,10.0,WSW,8.1,19.6,N/A,,Mostly Cloudy,240,2012-10-09 15:36:00
10:56 AM,39.2,32.0,75,29.69,10.0,West,9.2,-,N/A,,Mostly Cloudy,260,2012-10-09 15:56:00
11:16 AM,39.2,32.0,75,29.69,10.0,West,9.2,-,N/A,,Overcast,260,2012-10-09 16:16:00
11:36 AM,39.2,32.0,75,29.70,10.0,West,9.2,-,N/A,,Mostly Cloudy,260,2012-10-09 16:36:00
11:56 AM,39.2,32.0,75,29.70,10.0,West,10.4,17.3,N/A,,Overcast,270,2012-10-09 16:56:00
12:16 PM,39.2,32.0,75,29.71,10.0,West,10.4,-,N/A,,Overcast,270,2012-10-09 17:16:00
12:36 PM,39.2,33.8,81,29.71,7.0,West,5.8,-,N/A,,Overcast,270,2012-10-09 17:36:00
12:56 PM,39.2,35.6,87,29.72,7.0,West,11.5,-,N/A,,Overcast,260,2012-10-09 17:56:00
1:16 PM,37.4,35.6,93,29.72,7.0,West,12.7,17.3,N/A,,Drizzle,280,2012-10-09 18:16:00
1:36 PM,39.2,33.8,81,29.73,7.0,WNW,17.3,21.9,N/A,Rain,Rain,290,2012-10-09 18:36:00
1:56 PM,41.0,35.6,81,29.73,10.0,NW,8.1,-,N/A,,Mostly Cloudy,310,2012-10-09 18:56:00
2:16 PM,39.2,33.8,81,29.74,10.0,WNW,12.7,23.0,N/A,,Scattered Clouds,290,2012-10-09 19:16:00
2:36 PM,39.2,33.8,81,29.75,10.0,West,16.1,21.9,N/A,,Scattered Clouds,280,2012-10-09 19:36:00
2:56 PM,37.4,33.8,87,29.76,5.0,WNW,9.2,24.2,N/A,Rain,Light Rain,300,2012-10-09 19:56:00
3:16 PM,39.2,33.8,81,29.77,10.0,WNW,10.4,21.9,N/A,,Scattered Clouds,300,2012-10-09 20:16:00
3:36 PM,39.2,32.0,75,29.78,10.0,WNW,16.1,25.3,N/A,,Scattered Clouds,300,2012-10-09 20:36:00
3:56 PM,37.4,33.8,87,29.79,10.0,WNW,12.7,19.6,N/A,,Drizzle,290,2012-10-09 20:56:00
4:16 PM,37.4,32.0,81,29.80,10.0,WNW,18.4,24.2,N/A,,Light Drizzle,300,2012-10-09 21:16:00
4:36 PM,37.4,32.0,81,29.80,10.0,WNW,11.5,20.7,N/A,,Scattered Clouds,290,2012-10-09 21:36:00
4:56 PM,39.2,28.4,65,29.81,10.0,WNW,16.1,23.0,N/A,,Mostly Cloudy,290,2012-10-09 21:56:00
5:16 PM,39.2,24.8,56,29.81,10.0,WNW,16.1,21.9,N/A,,Mostly Cloudy,290,2012-10-09 22:16:00
5:36 PM,39.2,24.8,56,29.82,10.0,NW,8.1,25.3,N/A,,Mostly Cloudy,320,2012-10-09 22:36:00
5:56 PM,39.2,24.8,56,29.83,10.0,WNW,12.7,20.7,N/A,,Overcast,300,2012-10-09 22:56:00
6:16 PM,39.2,24.8,56,29.83,10.0,WNW,8.1,18.4,N/A,,Mostly Cloudy,290,2012-10-09 23:16:00
6:36 PM,39.2,24.8,56,29.84,10.0,WNW,10.4,18.4,N/A,,Mostly Cloudy,290,2012-10-09 23:36:00
6:56 PM,37.4,21.2,52,29.85,10.0,WNW,11.5,17.3,N/A,,Scattered Clouds,300,2012-10-09 23:56:00
7:16 PM,37.4,24.8,60,29.86,10.0,WNW,9.2,19.6,N/A,,Scattered Clouds,290,2012-10-10 00:16:00
7:36 PM,37.4,26.6,65,29.87,10.0,WNW,10.4,19.6,N/A,,Overcast,290,2012-10-10 00:36:00
7:56 PM,37.4,26.6,65,29.87,10.0,WNW,8.1,-,N/A,,Overcast,290,2012-10-10 00:56:00
8:16 PM,37.4,26.6,65,29.88,10.0,WNW,8.1,18.4,N/A,,Overcast,290,2012-10-10 01:16:00
8:36 PM,37.4,28.4,70,29.89,10.0,NW,10.4,24.2,N/A,,Overcast,320,2012-10-10 01:36:00
8:56 PM,33.8,30.2,87,29.90,5.0,Calm,Calm,-,N/A,Snow,Light Snow,0,2012-10-10 01:56:00
9:16 PM,33.8,30.2,87,29.90,10.0,WNW,3.5,-,N/A,,Mostly Cloudy,300,2012-10-10 02:16:00
9:36 PM,33.8,28.4,81,29.91,10.0,WNW,6.9,-,N/A,,Scattered Clouds,290,2012-10-10 02:36:00
9:56 PM,35.6,28.4,75,29.91,10.0,WNW,9.2,-,N/A,,Scattered Clouds,290,2012-10-10 02:56:00
10:16 PM,35.6,28.4,75,29.92,10.0,WNW,9.2,-,N/A,,Scattered Clouds,300,2012-10-10 03:16:00
10:36 PM,35.6,28.4,75,29.92,10.0,WNW,5.8,-,N/A,,Scattered Clouds,300,2012-10-10 03:36:00
10:56 PM,35.6,28.4,75,29.93,10.0,WNW,8.1,-,N/A,,Mostly Cloudy,300,2012-10-10 03:56:00
11:16 PM,35.6,28.4,75,29.93,10.0,WNW,6.9,-,N/A,,Mostly Cloudy,300,2012-10-10 04:16:00
11:36 PM,35.6,28.4,75,29.92,10.0,WNW,5.8,-,N/A,,Mostly Cloudy,290,2012-10-10 04:36:00
11:56 PM,33.8,28.4,81,29.92,10.0,West,4.6,-,N/A,,Overcast,280,2012-10-10 04:56:00